Time;durP1;ratioP1;P1;durP2;ratioP2;P2;SDS_P1;SDS_P2;PMS_P1;PMS_P2;Temp;Humidity;BMP_temperature;BMP_pressure;BME280_temperature;BME280_humidity;BME280_pressure;Samples;Min_cycle;Max_cycle;Signal;HPM_P1;HPM_P2
2022/10/25 00:00:55;;;;;;;5.07;1.37;;;11.90;99.90;;;;;;5092263;28;20468;-53
2022/10/25 00:03:22;;;;;;;1.67;0.93;;;11.30;99.90;;;;;;5091734;28;20529;-53
2022/10/25 00:05:49;;;;;;;3.87;0.80;;;11.10;99.90;;;;;;5091927;28;20528;-53
2022/10/25 00:08:16;;;;;;;1.30;0.90;;;11.00;99.90;;;;;;5091710;28;20572;-53
2022/10/25 00:10:42;;;;;;;1.10;0.73;;;11.40;99.90;;;;;;5091962;28;20562;-53
2022/10/25 00:13:09;;;;;;;2.27;1.30;;;11.70;99.90;;;;;;5091674;28;20489;-53
2022/10/25 00:15:38;;;;;;;2.80;1.00;;;11.80;99.90;;;;;;5091789;28;20440;-53
2022/10/25 00:18:05;;;;;;;1.57;1.00;;;11.40;99.90;;;;;;5091649;28;20534;-53
2022/10/25 00:20:32;;;;;;;1.60;1.20;;;11.20;99.90;;;;;;5091479;28;20807;-53
2022/10/25 00:22:58;;;;;;;3.00;1.50;;;11.00;99.90;;;;;;5091492;28;20446;-53
2022/10/25 00:25:25;;;;;;;2.17;1.20;;;11.00;99.90;;;;;;5091645;28;20532;-53
2022/10/25 00:27:52;;;;;;;2.90;1.07;;;11.50;99.90;;;;;;5091603;28;20845;-53
2022/10/25 00:30:19;;;;;;;2.27;1.17;;;11.30;99.90;;;;;;5091275;28;20874;-53
2022/10/25 00:32:51;;;;;;;4.13;1.27;;;11.40;99.90;;;;;;5091744;28;21086;-53
2022/10/25 00:35:18;;;;;;;1.40;1.00;;;11.60;99.90;;;;;;5091537;28;20445;-53
2022/10/25 00:37:45;;;;;;;1.60;1.07;;;11.80;99.90;;;;;;5091312;28;20447;-53
2022/10/25 00:40:12;;;;;;;1.90;1.13;;;11.50;99.90;;;;;;5091496;28;20564;-53
2022/10/25 00:42:39;;;;;;;2.23;0.87;;;11.10;99.90;;;;;;5091723;28;20522;-53
2022/10/25 00:45:20;;;;;;;2.33;1.20;;;10.90;99.90;;;;;;5091178;28;20443;-54
2022/10/25 00:47:52;;;;;;;1.80;1.10;;;10.80;99.90;;;;;;5092356;28;20515;-54
2022/10/25 00:50:30;;;;;;;1.20;0.90;;;11.20;99.90;;;;;;5095441;28;20475;-53
2022/10/25 00:53:01;;;;;;;3.03;1.30;;;11.40;99.90;;;;;;5095219;28;20440;-53
2022/10/25 00:55:28;;;;;;;1.50;0.90;;;11.20;99.90;;;;;;5095484;28;20541;-53
2022/10/25 00:57:59;;;;;;;1.53;1.17;;;11.20;99.90;;;;;;5095443;28;20454;-53
2022/10/25 01:00:26;;;;;;;1.50;1.10;;;11.40;99.90;;;;;;5095007;28;20466;-55
2022/10/25 01:02:54;;;;;;;1.10;0.83;;;11.60;99.90;;;;;;5095144;28;20537;-53
2022/10/25 01:05:22;;;;;;;1.50;1.00;;;11.70;99.90;;;;;;5095401;28;20445;-52
2022/10/25 01:07:49;;;;;;;2.10;0.97;;;11.80;99.90;;;;;;5095128;28;20536;-54
2022/10/25 01:10:16;;;;;;;1.20;0.90;;;12.00;99.90;;;;;;5095099;28;20474;-53
2022/10/25 01:12:43;;;;;;;2.17;0.90;;;12.00;99.90;;;;;;5094703;28;20441;-53
2022/10/25 01:15:11;;;;;;;2.77;0.90;;;11.80;99.90;;;;;;5094992;28;20443;-52
2022/10/25 01:17:48;;;;;;;6.40;1.00;;;12.00;99.90;;;;;;5094961;28;20948;-53
2022/10/25 01:20:47;;;;;;;2.77;0.97;;;12.10;99.90;;;;;;5095262;28;20879;-53
2022/10/25 01:23:32;;;;;;;5.90;1.20;;;12.10;99.90;;;;;;5094580;28;20522;-54
2022/10/25 01:26:35;;;;;;;1.60;1.20;;;11.80;99.90;;;;;;5094718;28;20529;-53
2022/10/25 01:29:35;;;;;;;1.93;1.30;;;11.00;99.90;;;;;;5075571;28;20475;-53
2022/10/25 01:32:07;;;;;;;2.63;1.07;;;10.70;99.90;;;;;;5094840;28;20444;-55
2022/10/25 01:34:39;;;;;;;2.20;1.10;;;10.70;99.90;;;;;;5094632;28;20825;-55
2022/10/25 01:37:11;;;;;;;2.00;1.57;;;10.70;99.90;;;;;;5094736;28;21018;-53
2022/10/25 01:39:44;;;;;;;2.30;1.27;;;10.90;99.90;;;;;;5094510;28;20437;-55
2022/10/25 01:42:19;;;;;;;1.40;0.97;;;11.20;99.90;;;;;;5094435;28;20479;-55
2022/10/25 01:44:54;;;;;;;1.30;0.90;;;11.40;99.90;;;;;;5094254;28;20483;-53
2022/10/25 01:47:26;;;;;;;1.30;1.10;;;11.50;99.90;;;;;;5094264;28;20444;-53
2022/10/25 01:52:24;;;;;;;2.40;0.90;;;11.80;99.90;;;;;;5128070;22;20499;-50
2022/10/25 01:54:52;;;;;;;1.47;1.17;;;11.20;99.90;;;;;;5073470;28;20444;-51
2022/10/25 01:57:37;;;;;;;3.30;1.10;;;10.80;99.90;;;;;;5073971;28;20524;-50
2022/10/25 02:00:09;;;;;;;1.83;1.40;;;10.70;99.90;;;;;;5073395;28;20436;-50
2022/10/25 02:02:46;;;;;;;3.60;1.30;;;10.80;99.90;;;;;;5073682;28;20510;-51
2022/10/25 02:05:18;;;;;;;1.80;1.50;;;11.00;99.90;;;;;;5073858;28;20441;-51
2022/10/25 02:07:54;;;;;;;1.97;1.20;;;11.10;99.90;;;;;;5074226;28;20439;-50
2022/10/25 02:10:29;;;;;;;2.77;1.77;;;11.40;99.90;;;;;;5073685;28;21067;-50
2022/10/25 02:13:01;;;;;;;1.50;1.10;;;11.50;99.90;;;;;;5073176;28;20436;-51
2022/10/25 02:15:34;;;;;;;1.93;1.10;;;11.60;99.90;;;;;;5073885;28;20460;-49
2022/10/25 02:18:07;;;;;;;1.20;1.00;;;11.70;99.90;;;;;;5073472;28;20531;-52
2022/10/25 02:20:35;;;;;;;1.60;1.10;;;11.70;99.90;;;;;;5073592;28;21057;-50
2022/10/25 02:23:05;;;;;;;1.93;1.17;;;11.80;99.90;;;;;;5073160;28;20954;-47
2022/10/25 02:25:34;;;;;;;2.30;1.17;;;11.80;99.90;;;;;;5073411;28;20449;-47
2022/10/25 02:28:05;;;;;;;3.20;1.07;;;11.90;99.90;;;;;;5073546;28;20533;-49
2022/10/25 02:30:34;;;;;;;1.60;0.97;;;11.90;99.90;;;;;;5072946;28;20482;-48
2022/10/25 02:33:02;;;;;;;1.20;1.00;;;11.90;99.90;;;;;;5073093;28;20930;-48
2022/10/25 02:35:29;;;;;;;2.37;1.10;;;11.70;99.90;;;;;;5073261;28;20521;-48
2022/10/25 02:37:56;;;;;;;3.20;0.90;;;11.70;99.90;;;;;;5073353;28;20446;-48
2022/10/25 02:40:23;;;;;;;1.33;0.80;;;11.80;99.90;;;;;;5073071;28;20462;-48
2022/10/25 02:42:50;;;;;;;1.43;1.17;;;11.90;99.90;;;;;;5073322;28;20475;-50
2022/10/25 02:45:17;;;;;;;1.87;1.67;;;11.80;99.90;;;;;;5072980;28;20459;-48
2022/10/25 02:47:44;;;;;;;2.20;2.00;;;11.90;99.90;;;;;;5073002;28;20884;-48
2022/10/25 02:50:13;;;;;;;2.27;2.07;;;11.90;99.90;;;;;;5072927;28;20929;-48
2022/10/25 02:52:39;;;;;;;2.37;1.93;;;12.00;99.90;;;;;;5073165;28;20524;-48
2022/10/25 02:55:07;;;;;;;4.00;1.90;;;12.00;99.90;;;;;;5073073;28;20452;-47
2022/10/25 02:57:35;;;;;;;3.03;2.20;;;12.00;99.90;;;;;;5072814;28;20443;-48
2022/10/25 03:00:02;;;;;;;2.33;2.10;;;11.90;99.90;;;;;;5072701;28;20438;-48
2022/10/25 03:02:29;;;;;;;2.67;2.47;;;11.10;99.90;;;;;;5072687;28;20529;-48
2022/10/25 03:04:56;;;;;;;2.40;1.90;;;10.70;99.90;;;;;;5072536;28;20537;-48
2022/10/25 03:07:24;;;;;;;3.33;2.60;;;10.70;99.90;;;;;;5072870;28;20481;-48
2022/10/25 03:09:51;;;;;;;2.43;1.87;;;10.90;99.90;;;;;;5072014;28;20564;-48
2022/10/25 03:12:18;;;;;;;2.10;1.67;;;11.20;99.90;;;;;;5072172;28;20554;-49
2022/10/25 03:14:45;;;;;;;2.13;1.87;;;11.30;99.90;;;;;;5072420;28;20896;-48
2022/10/25 03:17:12;;;;;;;2.40;1.40;;;10.90;99.90;;;;;;5072684;28;20734;-48
2022/10/25 03:19:39;;;;;;;1.27;0.97;;;10.50;99.90;;;;;;5072351;28;20532;-50
2022/10/25 03:22:05;;;;;;;1.70;0.87;;;10.30;99.90;;;;;;5072233;28;20912;-48
2022/10/25 03:24:34;;;;;;;1.30;0.70;;;10.30;99.90;;;;;;5072304;28;20483;-48
2022/10/25 03:27:01;;;;;;;1.60;0.90;;;10.30;99.90;;;;;;5072060;28;20583;-48
2022/10/25 03:29:27;;;;;;;2.03;1.13;;;10.60;99.90;;;;;;5071873;28;21008;-48
2022/10/25 03:31:54;;;;;;;1.43;0.80;;;11.00;99.90;;;;;;5072054;28;20544;-49
2022/10/25 03:34:21;;;;;;;3.60;1.40;;;10.70;99.90;;;;;;5071980;28;20442;-48
2022/10/25 03:36:48;;;;;;;5.10;1.23;;;10.40;99.90;;;;;;5072167;28;20465;-47
2022/10/25 03:39:15;;;;;;;2.03;1.50;;;10.30;99.90;;;;;;5072053;28;20520;-48
2022/10/25 03:41:43;;;;;;;2.87;1.60;;;10.40;99.90;;;;;;5072339;28;20493;-48
2022/10/25 03:44:10;;;;;;;2.20;1.70;;;10.20;99.90;;;;;;5071429;28;20968;-48
2022/10/25 03:46:37;;;;;;;5.73;1.50;;;10.20;99.90;;;;;;5071598;28;20531;-48
2022/10/25 03:49:03;;;;;;;1.47;1.27;;;10.20;99.90;;;;;;5071952;28;20475;-48
2022/10/25 03:51:30;;;;;;;4.57;1.60;;;10.30;99.90;;;;;;5071516;28;20473;-48
2022/10/25 03:53:57;;;;;;;3.27;1.97;;;10.60;99.90;;;;;;5071374;28;20890;-48
2022/10/25 03:56:24;;;;;;;2.20;1.83;;;10.40;99.90;;;;;;5071359;28;20441;-48
2022/10/25 03:58:53;;;;;;;3.57;1.77;;;10.20;99.90;;;;;;5071983;28;20445;-48
2022/10/25 04:01:19;;;;;;;1.93;1.70;;;10.10;99.90;;;;;;5071710;28;20488;-49
2022/10/25 04:03:46;;;;;;;2.83;2.00;;;10.20;99.90;;;;;;5071425;28;21001;-49
2022/10/25 04:06:13;;;;;;;2.50;2.30;;;10.30;99.90;;;;;;5071827;28;20857;-48
2022/10/25 04:08:40;;;;;;;1.97;1.77;;;10.30;99.90;;;;;;5071270;28;20528;-48
2022/10/25 04:11:07;;;;;;;2.10;1.63;;;10.30;99.90;;;;;;5071582;28;20483;-48
2022/10/25 04:13:34;;;;;;;2.37;1.67;;;10.30;99.90;;;;;;5071093;28;20441;-48
2022/10/25 04:16:06;;;;;;;2.60;2.33;;;10.30;99.90;;;;;;5071758;28;20537;-48
2022/10/25 04:18:32;;;;;;;2.50;1.60;;;10.50;99.90;;;;;;5071650;28;20794;-48
2022/10/25 04:20:59;;;;;;;2.40;2.03;;;10.80;99.90;;;;;;5071268;28;20543;-48
2022/10/25 04:23:26;;;;;;;6.10;2.10;;;11.10;99.90;;;;;;5071125;28;20532;-48
2022/10/25 04:25:55;;;;;;;2.33;2.13;;;11.10;99.90;;;;;;5071418;28;20476;-48
2022/10/25 04:28:22;;;;;;;2.60;2.13;;;10.70;99.90;;;;;;5071510;28;20444;-48
2022/10/25 04:30:49;;;;;;;5.13;2.50;;;10.40;99.90;;;;;;5070811;28;20480;-48
2022/10/25 04:33:17;;;;;;;9.07;2.67;;;10.20;99.90;;;;;;5071047;28;20444;-48
2022/10/25 04:35:44;;;;;;;4.10;2.10;;;10.20;99.90;;;;;;5071179;28;20933;-48
2022/10/25 04:38:11;;;;;;;3.67;2.17;;;10.20;99.90;;;;;;5071363;28;20452;-48
2022/10/25 04:40:38;;;;;;;5.20;1.83;;;10.20;99.90;;;;;;5071245;28;20548;-48
2022/10/25 04:43:05;;;;;;;2.93;2.00;;;10.30;99.90;;;;;;5071146;28;20466;-48
2022/10/25 04:45:32;;;;;;;2.30;2.10;;;10.60;99.90;;;;;;5071316;28;20708;-48
2022/10/25 04:47:59;;;;;;;6.03;4.00;;;10.80;99.90;;;;;;5071100;28;20912;-48
2022/10/25 04:50:27;;;;;;;2.87;2.40;;;10.70;99.90;;;;;;5070603;28;20500;-49
2022/10/25 04:52:54;;;;;;;3.93;2.70;;;10.70;99.90;;;;;;5071081;28;20559;-51
2022/10/25 04:55:21;;;;;;;2.70;2.33;;;11.00;99.90;;;;;;5071109;28;20523;-49
2022/10/25 04:57:48;;;;;;;3.87;2.57;;;10.90;99.90;;;;;;5071212;28;20476;-49
2022/10/25 05:00:15;;;;;;;4.30;2.10;;;10.50;99.90;;;;;;5070994;28;20483;-51
2022/10/25 05:02:42;;;;;;;2.63;2.10;;;10.50;99.90;;;;;;5070870;28;20523;-49
2022/10/25 05:05:09;;;;;;;2.23;2.03;;;10.80;99.90;;;;;;5070939;28;20546;-52
2022/10/25 05:07:37;;;;;;;4.80;2.47;;;11.00;99.90;;;;;;5071206;28;20524;-49
2022/10/25 05:10:05;;;;;;;2.80;1.87;;;11.10;99.90;;;;;;5070782;28;20483;-49
2022/10/25 05:12:32;;;;;;;2.23;2.00;;;10.60;99.90;;;;;;5070818;28;20547;-50
2022/10/25 05:14:58;;;;;;;5.17;3.43;;;10.20;99.90;;;;;;5070603;28;20558;-49
2022/10/25 05:17:25;;;;;;;3.53;3.23;;;10.10;99.90;;;;;;5070813;28;20536;-49
2022/10/25 05:19:52;;;;;;;4.23;3.00;;;10.40;99.90;;;;;;5070755;28;20524;-49
2022/10/25 05:22:19;;;;;;;8.80;3.50;;;10.90;99.90;;;;;;5070640;28;20467;-49
2022/10/25 05:24:47;;;;;;;4.93;3.03;;;11.10;99.90;;;;;;5070508;28;20532;-49
2022/10/25 05:27:14;;;;;;;2.90;2.60;;;11.10;99.90;;;;;;5070364;28;20450;-49
2022/10/25 05:29:41;;;;;;;2.30;2.10;;;11.30;99.90;;;;;;5070563;28;20476;-49
2022/10/25 05:32:08;;;;;;;2.63;2.30;;;11.40;99.90;;;;;;5071432;28;20573;-49
2022/10/25 05:34:35;;;;;;;2.43;2.17;;;11.30;99.90;;;;;;5072767;28;20450;-50
2022/10/25 05:37:02;;;;;;;2.90;2.67;;;11.40;99.90;;;;;;5074556;28;20445;-49
2022/10/25 05:39:29;;;;;;;4.87;2.70;;;11.30;99.90;;;;;;5074396;28;20493;-49
2022/10/25 05:41:57;;;;;;;3.63;3.33;;;11.40;99.90;;;;;;5074012;28;20477;-50
2022/10/25 05:44:24;;;;;;;3.50;2.90;;;10.80;99.90;;;;;;5074397;28;20449;-50
2022/10/25 05:46:52;;;;;;;5.63;4.10;;;10.50;99.90;;;;;;5074405;28;20444;-51
2022/10/25 05:49:18;;;;;;;4.93;4.10;;;10.30;99.90;;;;;;5074274;28;20451;-49
2022/10/25 05:51:45;;;;;;;6.27;5.03;;;10.20;99.90;;;;;;5073752;28;20474;-49
2022/10/25 05:54:14;;;;;;;4.43;4.03;;;10.20;99.90;;;;;;5073555;28;20523;-50
2022/10/25 05:56:41;;;;;;;3.73;3.43;;;10.50;99.90;;;;;;5073962;28;20968;-49
2022/10/25 05:59:11;;;;;;;5.57;4.13;;;10.80;99.90;;;;;;5074275;28;20827;-49
2022/10/25 06:01:40;;;;;;;4.30;3.50;;;10.90;99.90;;;;;;5073877;28;20456;-49
2022/10/25 06:04:07;;;;;;;3.43;3.13;;;11.10;99.90;;;;;;5073400;28;20543;-52
2022/10/25 06:06:34;;;;;;;3.10;2.80;;;11.10;99.90;;;;;;5073768;28;20446;-49
2022/10/25 06:09:02;;;;;;;3.17;2.80;;;11.20;99.90;;;;;;5073639;28;20535;-49
2022/10/25 06:11:29;;;;;;;3.00;2.63;;;11.30;99.90;;;;;;5073684;28;20579;-49
2022/10/25 06:13:56;;;;;;;2.50;2.30;;;11.40;99.90;;;;;;5073295;28;20468;-49
2022/10/25 06:16:25;;;;;;;2.30;2.00;;;11.40;99.90;;;;;;5073689;28;20931;-49
2022/10/25 06:18:52;;;;;;;2.83;2.53;;;11.40;99.90;;;;;;5073350;28;20450;-51
2022/10/25 06:21:21;;;;;;;6.10;3.20;;;11.50;99.90;;;;;;5073707;28;20558;-49
2022/10/25 06:23:49;;;;;;;3.17;2.80;;;11.40;99.90;;;;;;5072333;28;20534;-50
2022/10/25 06:26:18;;;;;;;3.40;3.10;;;11.50;99.90;;;;;;5073402;28;20540;-49
2022/10/25 06:28:45;;;;;;;4.20;2.80;;;11.50;99.90;;;;;;5073407;28;20441;-49
2022/10/25 06:31:14;;;;;;;3.07;2.43;;;11.60;99.90;;;;;;5072613;28;20580;-50
2022/10/25 06:33:43;;;;;;;3.73;2.43;;;11.60;99.90;;;;;;5073353;28;20529;-51
2022/10/25 06:36:13;;;;;;;2.10;1.70;;;11.10;99.90;;;;;;5073416;28;20965;-49
2022/10/25 06:38:40;;;;;;;2.27;1.23;;;10.70;99.90;;;;;;5073347;28;20442;-50
2022/10/25 06:41:11;;;;;;;2.27;0.93;;;10.40;99.90;;;;;;5073071;28;20562;-50
2022/10/25 06:43:38;;;;;;;1.70;1.20;;;10.30;99.90;;;;;;5073076;28;20523;-49
2022/10/25 06:46:06;;;;;;;1.90;1.20;;;10.40;99.90;;;;;;5072920;28;20447;-49
2022/10/25 06:48:33;;;;;;;4.10;2.60;;;10.40;99.90;;;;;;5073213;28;20517;-49
2022/10/25 06:51:05;;;;;;;3.80;2.60;;;10.40;99.90;;;;;;5072816;28;20922;-51
2022/10/25 06:53:33;;;;;;;3.13;2.70;;;10.40;99.90;;;;;;5072785;28;20448;-49
2022/10/25 06:56:00;;;;;;;3.23;2.93;;;10.20;99.90;;;;;;5072780;28;20532;-49
2022/10/25 06:58:30;;;;;;;3.30;2.90;;;10.20;99.90;;;;;;5072632;28;20450;-48
2022/10/25 07:01:01;;;;;;;3.80;3.50;;;10.10;99.90;;;;;;5072592;28;20536;-49
2022/10/25 07:03:30;;;;;;;3.50;3.20;;;10.10;99.90;;;;;;5072481;28;20448;-49
2022/10/25 07:05:59;;;;;;;3.70;3.27;;;10.10;99.90;;;;;;5072734;28;20452;-50
2022/10/25 07:08:27;;;;;;;3.93;3.53;;;10.00;99.90;;;;;;5072720;28;20524;-49
2022/10/25 07:10:54;;;;;;;2.70;2.50;;;9.90;99.90;;;;;;5072286;28;20568;-49
2022/10/25 07:13:21;;;;;;;6.20;5.60;;;9.80;99.90;;;;;;5071701;28;20441;-50
2022/10/25 07:15:48;;;;;;;4.10;3.80;;;9.80;99.90;;;;;;5072469;28;20536;-49
2022/10/25 07:18:15;;;;;;;4.43;3.23;;;10.00;99.90;;;;;;5072480;28;21029;-49
2022/10/25 07:20:45;;;;;;;4.90;3.77;;;10.10;99.90;;;;;;5072208;28;20464;-49
2022/10/25 07:23:12;;;;;;;4.60;3.30;;;10.40;99.90;;;;;;5071924;28;20460;-49
2022/10/25 07:25:41;;;;;;;1.50;1.40;;;10.70;99.90;;;;;;5072638;28;20536;-49
2022/10/25 07:28:07;;;;;;;1.77;1.23;;;10.40;99.90;;;;;;5072331;28;20531;-49
2022/10/25 07:30:34;;;;;;;2.13;1.60;;;10.60;99.90;;;;;;5071466;28;20477;-49
2022/10/25 07:33:03;;;;;;;3.33;0.90;;;10.60;99.90;;;;;;5071949;28;21008;-49
2022/10/25 07:35:29;;;;;;;2.70;1.83;;;10.50;99.90;;;;;;5072110;28;20445;-49
2022/10/25 07:37:56;;;;;;;2.00;1.40;;;10.30;99.90;;;;;;5072123;28;20806;-49
2022/10/25 07:40:23;;;;;;;1.97;1.17;;;10.00;99.90;;;;;;5072092;28;20465;-48
2022/10/25 07:42:53;;;;;;;3.20;1.40;;;10.20;99.90;;;;;;5072223;28;20510;-46
2022/10/25 07:45:19;;;;;;;3.23;1.70;;;10.50;99.90;;;;;;5071850;28;21005;-48
2022/10/25 07:47:46;;;;;;;2.87;2.30;;;10.30;99.90;;;;;;5071767;28;20531;-49
2022/10/25 07:50:13;;;;;;;2.87;2.43;;;10.20;99.90;;;;;;5071242;28;20437;-50
2022/10/25 07:52:40;;;;;;;5.50;4.50;;;10.00;99.90;;;;;;5073154;28;21048;-49
2022/10/25 07:55:08;;;;;;;4.70;4.27;;;10.10;99.90;;;;;;5071833;28;20531;-48
2022/10/25 07:57:34;;;;;;;5.13;4.50;;;10.60;99.90;;;;;;5071194;28;20546;-49
2022/10/25 08:00:03;;;;;;;5.07;4.10;;;10.90;99.90;;;;;;5071678;28;20520;-49
2022/10/25 08:02:30;;;;;;;8.47;6.27;;;10.70;99.90;;;;;;5071860;28;20447;-50
2022/10/25 08:04:57;;;;;;;8.80;6.63;;;10.40;99.90;;;;;;5071546;28;20531;-49
2022/10/25 08:07:24;;;;;;;11.90;7.00;;;10.20;99.90;;;;;;5071849;28;20525;-49
2022/10/25 08:09:51;;;;;;;7.03;6.30;;;10.30;99.90;;;;;;5071997;28;20444;-49
2022/10/25 08:12:18;;;;;;;8.47;6.90;;;10.50;99.90;;;;;;5071178;28;20583;-49
2022/10/25 08:14:44;;;;;;;7.50;6.30;;;10.80;99.90;;;;;;5071417;28;20533;-49
2022/10/25 08:17:13;;;;;;;7.77;6.20;;;10.90;99.90;;;;;;5071399;28;20890;-50
2022/10/25 08:19:39;;;;;;;7.10;6.10;;;11.00;99.90;;;;;;5071450;28;20442;-49
2022/10/25 08:22:06;;;;;;;5.30;3.50;;;11.00;99.90;;;;;;5071350;28;20540;-48
2022/10/25 08:24:34;;;;;;;4.27;3.87;;;10.90;99.90;;;;;;5071517;28;20535;-48
2022/10/25 08:27:01;;;;;;;3.93;3.13;;;11.00;99.90;;;;;;5071414;28;20457;-49
2022/10/25 08:29:28;;;;;;;3.17;2.50;;;11.00;99.90;;;;;;5071251;28;20524;-50
2022/10/25 08:31:55;;;;;;;3.83;2.80;;;11.10;99.90;;;;;;5071090;28;21089;-49
2022/10/25 08:34:23;;;;;;;3.43;3.10;;;10.90;99.90;;;;;;5071253;28;20536;-49
2022/10/25 08:36:50;;;;;;;7.33;3.10;;;11.10;99.90;;;;;;5071266;28;20447;-48
2022/10/25 08:39:17;;;;;;;3.50;2.17;;;11.10;99.90;;;;;;5071323;28;20447;-48
2022/10/25 08:41:50;;;;;;;1.73;1.40;;;11.10;99.90;;;;;;5071013;28;20511;-49
2022/10/25 08:44:24;;;;;;;5.33;3.00;;;11.20;99.90;;;;;;5070919;28;20446;-49
2022/10/25 08:46:59;;;;;;;3.00;1.60;;;11.20;99.90;;;;;;5071350;28;20525;-49
2022/10/25 08:49:32;;;;;;;4.07;1.40;;;11.20;99.90;;;;;;5070818;28;20527;-48
2022/10/25 08:52:00;;;;;;;3.53;2.30;;;11.30;99.90;;;;;;5070900;28;20480;-50
2022/10/25 08:54:32;;;;;;;9.70;3.33;;;11.30;99.90;;;;;;5070577;28;20461;-51
2022/10/25 08:57:08;;;;;;;32.90;8.50;;;11.20;99.90;;;;;;5071105;28;20535;-49
2022/10/25 08:59:40;;;;;;;3.73;1.70;;;11.20;99.90;;;;;;5071219;28;20533;-48
2022/10/25 09:02:17;;;;;;;6.23;2.40;;;11.30;99.90;;;;;;5071109;28;20460;-49
2022/10/25 09:04:45;;;;;;;2.37;1.20;;;11.40;99.90;;;;;;5070779;28;20472;-48
2022/10/25 09:07:29;;;;;;;3.40;1.23;;;11.20;99.90;;;;;;5070857;28;20532;-48
2022/10/25 09:10:04;;;;;;;5.97;1.33;;;11.30;99.90;;;;;;5073983;28;20536;-48
2022/10/25 09:12:38;;;;;;;4.30;1.17;;;11.50;99.90;;;;;;5074527;28;20481;-53
2022/10/25 09:15:15;;;;;;;2.83;0.87;;;11.70;99.90;;;;;;5074662;28;20445;-49
2022/10/25 09:17:48;;;;;;;1.20;0.80;;;11.70;99.90;;;;;;5074709;28;20952;-49
2022/10/25 09:20:20;;;;;;;1.60;1.23;;;11.60;99.90;;;;;;5074558;28;20961;-48
2022/10/25 09:22:48;;;;;;;2.23;1.40;;;11.60;99.90;;;;;;5074627;28;20476;-50
2022/10/25 09:25:21;;;;;;;1.20;0.50;;;11.90;99.90;;;;;;5074421;28;20820;-50
2022/10/25 09:27:57;;;;;;;1.10;0.70;;;12.00;99.90;;;;;;5074897;28;20452;-49
2022/10/25 09:30:24;;;;;;;1.70;0.63;;;12.10;99.90;;;;;;5074158;28;20976;-49
2022/10/25 09:32:55;;;;;;;1.00;0.60;;;12.10;99.90;;;;;;5074329;28;20870;-46
2022/10/25 09:35:39;;;;;;;1.10;0.70;;;12.10;99.90;;;;;;5074494;28;20570;-51
2022/10/25 09:38:11;;;;;;;1.20;0.70;;;12.20;99.90;;;;;;5074279;28;20456;-48
2022/10/25 09:40:44;;;;;;;2.43;1.27;;;12.30;99.90;;;;;;5074360;28;20541;-48
2022/10/25 09:43:16;;;;;;;9.93;2.33;;;12.40;99.90;;;;;;5073944;28;20448;-48
2022/10/25 09:45:46;;;;;;;7.60;1.50;;;12.40;99.90;;;;;;5074494;28;20445;-49
2022/10/25 09:48:22;;;;;;;5.07;1.40;;;12.50;99.90;;;;;;5074060;28;20441;-48
2022/10/25 09:50:55;;;;;;;1.87;0.90;;;12.60;99.90;;;;;;5074071;28;20571;-49
2022/10/25 09:53:22;;;;;;;1.30;0.87;;;12.70;99.90;;;;;;5074022;28;20442;-48
2022/10/25 09:55:52;;;;;;;1.80;1.20;;;12.90;99.90;;;;;;5074143;28;20529;-48
2022/10/25 09:58:21;;;;;;;2.17;1.10;;;12.80;99.90;;;;;;5073952;28;20957;-49
2022/10/25 10:00:50;;;;;;;2.27;1.30;;;12.90;99.90;;;;;;5073830;28;20585;-49
2022/10/25 10:03:18;;;;;;;17.97;3.70;;;13.00;99.90;;;;;;5073803;28;20438;-47
2022/10/25 10:05:50;;;;;;;2.20;1.40;;;13.10;99.90;;;;;;5073854;28;20971;-49
2022/10/25 10:08:18;;;;;;;2.27;0.90;;;13.10;99.90;;;;;;5073912;28;20539;-49
2022/10/25 10:10:47;;;;;;;1.40;1.00;;;13.10;99.90;;;;;;5073536;28;20464;-49
2022/10/25 10:13:20;;;;;;;1.60;1.00;;;13.20;99.90;;;;;;5073165;28;20431;-48
2022/10/25 10:15:54;;;;;;;1.30;1.00;;;13.20;99.90;;;;;;5073758;28;20533;-51
2022/10/25 10:18:27;;;;;;;2.00;1.20;;;13.10;99.90;;;;;;5073790;28;20545;-49
2022/10/25 10:21:08;;;;;;;1.40;1.13;;;13.20;99.90;;;;;;5072934;28;20466;-48
2022/10/25 10:23:43;;;;;;;2.00;1.23;;;13.30;99.90;;;;;;5073160;28;20944;-48
2022/10/25 10:26:14;;;;;;;1.37;1.10;;;13.30;99.90;;;;;;5073779;28;20525;-48
2022/10/25 10:28:46;;;;;;;1.53;0.90;;;13.40;99.90;;;;;;5073743;28;20533;-49
2022/10/25 10:31:13;;;;;;;2.33;1.20;;;13.50;99.90;;;;;;5072915;28;20490;-48
2022/10/25 10:33:41;;;;;;;1.63;0.87;;;13.50;99.90;;;;;;5073189;28;20443;-52
2022/10/25 10:36:32;;;;;;;3.73;1.23;;;13.50;99.90;;;;;;5073416;28;20534;-51
2022/10/25 10:39:24;;;;;;;1.60;1.00;;;13.60;99.90;;;;;;5068016;28;20450;-49
2022/10/25 10:42:01;;;;;;;1.20;0.83;;;13.70;99.90;;;;;;5073157;28;20535;-48
2022/10/25 10:44:29;;;;;;;2.27;1.40;;;13.60;99.90;;;;;;5073277;28;20487;-50
2022/10/25 10:46:56;;;;;;;3.80;1.00;;;13.70;99.90;;;;;;5073218;28;20443;-48
2022/10/25 10:49:34;;;;;;;1.93;1.20;;;13.70;99.90;;;;;;5072895;28;20988;-48
2022/10/25 10:52:02;;;;;;;2.00;1.23;;;13.70;99.90;;;;;;5072646;28;20566;-51
2022/10/25 10:54:32;;;;;;;1.70;1.10;;;13.80;99.90;;;;;;5072848;28;20921;-49
2022/10/25 10:57:01;;;;;;;1.70;1.10;;;13.80;99.90;;;;;;5073007;28;20448;-50
2022/10/25 10:59:36;;;;;;;1.47;1.03;;;13.80;99.90;;;;;;5072739;28;20533;-49
2022/10/25 11:02:21;;;;;;;20.33;13.57;;;13.80;99.90;;;;;;5072732;28;20469;-48
2022/10/25 11:04:49;;;;;;;4.33;2.57;;;13.90;99.90;;;;;;5073067;28;20440;-48
2022/10/25 11:07:26;;;;;;;2.30;1.83;;;14.00;99.90;;;;;;5072907;28;20472;-50
2022/10/25 11:09:53;;;;;;;3.80;1.40;;;14.10;99.90;;;;;;5072645;28;20959;-48
2022/10/25 11:12:21;;;;;;;21.80;4.47;;;14.10;99.90;;;;;;5072310;28;20574;-49
2022/10/25 11:14:48;;;;;;;2.70;1.00;;;14.10;99.90;;;;;;5072141;28;20444;-48
2022/10/25 11:17:19;;;;;;;1.90;1.70;;;14.10;99.90;;;;;;5072789;28;20531;-48
2022/10/25 11:20:18;;;;;;;2.37;1.20;;;14.00;99.90;;;;;;5072684;28;20530;-49
2022/10/25 11:22:57;;;;;;;1.90;1.20;;;14.00;99.90;;;;;;5057378;28;20443;-48
2022/10/25 11:25:33;;;;;;;1.60;1.20;;;14.10;99.90;;;;;;5072375;28;20445;-48
2022/10/25 11:28:21;;;;;;;1.80;1.37;;;14.20;99.90;;;;;;5072553;28;20443;-48
2022/10/25 11:30:58;;;;;;;3.83;1.20;;;14.30;99.90;;;;;;5071539;28;20459;-48
2022/10/25 11:33:34;;;;;;;1.80;1.13;;;14.40;99.90;;;;;;5071666;28;20570;-48
2022/10/25 11:36:18;;;;;;;1.80;1.27;;;14.30;99.90;;;;;;5072342;28;20448;-48
2022/10/25 11:38:59;;;;;;;1.97;1.10;;;14.30;99.90;;;;;;5072334;28;20447;-48
2022/10/25 11:41:37;;;;;;;1.60;1.30;;;14.40;99.90;;;;;;5072022;28;20460;-48
2022/10/25 11:44:35;;;;;;;3.57;1.23;;;14.50;99.90;;;;;;5071662;28;20816;-48
2022/10/25 11:47:11;;;;;;;5.30;1.33;;;14.50;99.90;;;;;;5072186;28;20451;-48
2022/10/25 11:49:51;;;;;;;2.87;1.10;;;14.50;99.90;;;;;;5071913;28;20448;-48
2022/10/25 11:52:47;;;;;;;3.00;1.20;;;14.60;99.90;;;;;;5071597;28;20505;-49
2022/10/25 11:55:30;;;;;;;2.33;1.20;;;14.70;99.90;;;;;;5071783;28;20463;-48
2022/10/25 11:58:06;;;;;;;2.67;1.17;;;14.80;99.90;;;;;;5072034;28;20450;-49
2022/10/25 12:00:45;;;;;;;1.90;1.17;;;14.80;99.90;;;;;;5071621;28;20551;-48
2022/10/25 12:03:34;;;;;;;1.60;1.10;;;14.90;99.90;;;;;;5071689;28;20432;-49
2022/10/25 12:06:12;;;;;;;2.07;1.40;;;14.90;99.90;;;;;;5071678;28;20450;-48
2022/10/25 12:08:47;;;;;;;1.70;1.40;;;15.00;99.90;;;;;;5071474;28;20440;-49
2022/10/25 12:11:19;;;;;;;2.30;1.33;;;14.80;99.90;;;;;;5071293;28;20470;-50
2022/10/25 12:13:50;;;;;;;1.60;1.20;;;14.70;99.90;;;;;;5071321;28;20437;-49
2022/10/25 12:16:20;;;;;;;2.00;1.20;;;14.80;99.90;;;;;;5071606;28;20436;-48
2022/10/25 12:18:49;;;;;;;2.47;1.47;;;14.80;99.90;;;;;;5071545;28;20525;-48
2022/10/25 12:21:20;;;;;;;7.73;1.80;;;14.90;99.90;;;;;;5071609;28;20551;-48
2022/10/25 12:23:50;;;;;;;18.97;3.90;;;15.10;99.90;;;;;;5071281;28;20471;-48
2022/10/25 12:26:25;;;;;;;3.20;1.20;;;15.20;99.90;;;;;;5071479;28;20799;-51
2022/10/25 12:28:52;;;;;;;6.70;1.47;;;15.10;99.90;;;;;;5071328;28;20444;-49
2022/10/25 12:31:23;;;;;;;3.27;1.67;;;15.10;99.90;;;;;;5071512;28;20815;-49
2022/10/25 12:33:55;;;;;;;2.40;1.30;;;15.20;99.90;;;;;;5071189;28;20488;-49
2022/10/25 12:36:30;;;;;;;2.30;1.33;;;15.20;99.90;;;;;;5071339;28;20447;-50
2022/10/25 12:39:01;;;;;;;2.50;1.90;;;15.30;99.90;;;;;;5071422;28;20532;-49
2022/10/25 12:41:32;;;;;;;1.63;1.10;;;15.50;99.90;;;;;;5071165;28;20468;-49
2022/10/25 12:44:12;;;;;;;7.00;1.90;;;15.50;99.90;;;;;;5076199;28;20812;-49
2022/10/25 12:47:09;;;;;;;2.20;1.50;;;15.50;99.90;;;;;;5077868;28;20445;-49
2022/10/25 12:50:08;;;;;;;1.93;1.30;;;15.60;99.90;;;;;;5077871;28;20532;-49
2022/10/25 12:52:38;;;;;;;2.37;1.73;;;15.60;99.90;;;;;;5077666;28;20566;-49
2022/10/25 12:55:24;;;;;;;2.47;1.30;;;15.70;99.90;;;;;;5077556;28;20523;-50
2022/10/25 12:58:03;;;;;;;1.70;1.33;;;15.70;99.90;;;;;;5077828;28;20527;-49
2022/10/25 13:00:36;;;;;;;24.67;5.20;;;15.80;99.90;;;;;;5077598;28;20547;-48
2022/10/25 13:03:50;;;;;;;4.20;1.60;;;15.80;99.90;;;;;;5077719;28;20523;-51
2022/10/25 13:06:30;;;;;;;1.70;1.40;;;15.70;99.90;;;;;;5077538;28;20449;-49